Time;durP1;ratioP1;P1;durP2;ratioP2;P2;SDS_P1;SDS_P2;PMS_P1;PMS_P2;Temp;Humidity;BMP_temperature;BMP_pressure;BME280_temperature;BME280_humidity;BME280_pressure;Samples;Min_cycle;Max_cycle;Signal;HPM_P1;HPM_P2
2021/05/08 00:01:40;;;;;;;5.50;4.07;;;;;;;;;;5076530;28;20816;-81
2021/05/08 00:04:06;;;;;;;4.23;3.90;;;;;;;;;;5076910;28;20227;-81
2021/05/08 00:06:33;;;;;;;3.70;3.40;;;;;;;;;;5076996;28;20182;-81
2021/05/08 00:09:01;;;;;;;3.90;3.60;;;;;;;;;;5076587;28;20212;-81
2021/05/08 00:11:27;;;;;;;3.67;3.37;;;;;;;;;;5094869;28;20205;-81
2021/05/08 00:13:53;;;;;;;4.67;3.30;;;;;;;;;;5076517;28;20202;-81
2021/05/08 00:16:19;;;;;;;3.63;3.30;;;;;;;;;;5076580;28;20754;-81
2021/05/08 00:18:45;;;;;;;3.40;3.20;;;;;;;;;;5094488;28;20681;-81
2021/05/08 00:21:12;;;;;;;3.30;3.10;;;;;;;;;;5076855;28;20646;-81
2021/05/08 00:23:38;;;;;;;3.27;3.07;;;;;;;;;;5076253;28;20252;-82
2021/05/08 00:26:05;;;;;;;3.70;3.30;;;;;;;;;;5094309;28;20610;-81
2021/05/08 00:28:31;;;;;;;3.33;3.03;;;;;;;;;;5094128;28;20243;-81
2021/05/08 00:30:57;;;;;;;3.30;3.10;;;;;;;;;;5094057;28;20213;-81
2021/05/08 00:33:23;;;;;;;3.20;3.00;;;;;;;;;;5094022;28;20260;-81
2021/05/08 00:35:49;;;;;;;4.73;3.37;;;;;;;;;;5094470;28;20206;-81
2021/05/08 00:38:15;;;;;;;3.50;3.20;;;;;;;;;;5076143;28;20221;-81
2021/05/08 00:40:42;;;;;;;4.60;3.77;;;;;;;;;;5075772;28;20236;-81
2021/05/08 00:43:09;;;;;;;3.80;3.50;;;;;;;;;;5093249;28;20245;-81
2021/05/08 00:45:35;;;;;;;3.83;3.50;;;;;;;;;;5075407;28;20202;-81
2021/05/08 00:48:03;;;;;;;4.40;4.00;;;;;;;;;;5072578;28;20287;-81
2021/05/08 00:50:31;;;;;;;3.57;3.37;;;;;;;;;;5072621;28;20190;-82
2021/05/08 00:52:57;;;;;;;4.87;3.53;;;;;;;;;;5072605;28;20199;-81
2021/05/08 00:55:23;;;;;;;3.53;3.33;;;;;;;;;;5072201;28;20228;-81
2021/05/08 00:57:50;;;;;;;4.10;3.80;;;;;;;;;;5073636;28;20258;-81
2021/05/08 01:00:17;;;;;;;4.43;3.90;;;;;;;;;;5072351;28;20211;-81
2021/05/08 01:02:44;;;;;;;4.63;4.27;;;;;;;;;;5072078;28;20207;-81
2021/05/08 01:05:11;;;;;;;4.73;4.10;;;;;;;;;;5073723;28;20678;-81
2021/05/08 01:07:37;;;;;;;4.30;3.90;;;;;;;;;;5073639;28;20205;-81
2021/05/08 01:10:04;;;;;;;4.30;3.93;;;;;;;;;;5072036;28;20198;-81
2021/05/08 01:12:31;;;;;;;4.60;4.20;;;;;;;;;;5071656;28;20734;-81
2021/05/08 01:14:57;;;;;;;5.10;4.30;;;;;;;;;;5072115;28;20195;-81
2021/05/08 01:17:24;;;;;;;4.73;4.43;;;;;;;;;;5072121;28;20206;-81
2021/05/08 01:19:51;;;;;;;3.90;3.70;;;;;;;;;;5072081;28;20191;-81
2021/05/08 01:22:18;;;;;;;4.70;4.20;;;;;;;;;;5071622;28;20194;-81
2021/05/08 01:24:44;;;;;;;3.80;3.60;;;;;;;;;;5071758;28;20209;-81
2021/05/08 01:27:10;;;;;;;4.17;3.80;;;;;;;;;;5071931;28;20611;-81
2021/05/08 01:29:36;;;;;;;4.10;3.80;;;;;;;;;;5071632;28;20214;-81
2021/05/08 01:32:03;;;;;;;5.13;3.80;;;;;;;;;;5071673;28;20218;-81
2021/05/08 01:34:29;;;;;;;3.83;3.53;;;;;;;;;;5071547;28;20248;-81
2021/05/08 01:36:55;;;;;;;3.97;3.67;;;;;;;;;;5071625;28;20238;-81
2021/05/08 01:39:22;;;;;;;3.83;3.53;;;;;;;;;;5073197;28;20554;-81
2021/05/08 01:41:48;;;;;;;4.57;3.63;;;;;;;;;;5071795;28;20206;-81
2021/05/08 01:44:14;;;;;;;4.10;3.80;;;;;;;;;;5073178;28;20202;-81
2021/05/08 01:46:40;;;;;;;3.80;3.50;;;;;;;;;;5074519;28;20225;-81
2021/05/08 01:49:06;;;;;;;4.33;4.03;;;;;;;;;;5074916;28;20220;-81
2021/05/08 01:51:33;;;;;;;4.07;3.70;;;;;;;;;;5074446;28;20194;-81
2021/05/08 01:53:59;;;;;;;4.20;3.90;;;;;;;;;;5078822;28;20237;-80
2021/05/08 01:56:26;;;;;;;4.00;3.70;;;;;;;;;;5081304;28;20248;-81
2021/05/08 01:58:52;;;;;;;3.80;3.53;;;;;;;;;;5081712;28;20185;-80
2021/05/08 02:01:18;;;;;;;4.37;3.50;;;;;;;;;;5081285;28;20221;-80
2021/05/08 02:03:44;;;;;;;3.80;3.60;;;;;;;;;;5099334;28;20229;-80
2021/05/08 02:06:11;;;;;;;3.90;3.60;;;;;;;;;;5099567;28;20233;-81
2021/05/08 02:08:37;;;;;;;3.50;3.30;;;;;;;;;;5099871;28;20885;-80
2021/05/08 02:11:03;;;;;;;3.23;3.10;;;;;;;;;;5081548;28;20196;-81
2021/05/08 02:13:30;;;;;;;3.53;3.33;;;;;;;;;;5081627;28;20221;-80
2021/05/08 02:15:56;;;;;;;3.60;3.40;;;;;;;;;;5099668;28;20185;-80
2021/05/08 02:18:23;;;;;;;3.97;3.67;;;;;;;;;;5081352;28;20681;-81
2021/05/08 02:20:49;;;;;;;4.23;3.50;;;;;;;;;;5081061;28;20201;-81
2021/05/08 02:23:16;;;;;;;3.90;3.60;;;;;;;;;;5081234;28;20205;-80
2021/05/08 02:25:42;;;;;;;4.67;3.37;;;;;;;;;;5080673;28;20247;-80
2021/05/08 02:28:08;;;;;;;3.80;3.60;;;;;;;;;;5081037;28;20547;-81
2021/05/08 02:30:37;;;;;;;3.70;3.40;;;;;;;;;;5081554;28;20190;-81
2021/05/08 02:33:04;;;;;;;5.37;3.30;;;;;;;;;;5081252;28;20190;-80
2021/05/08 02:35:31;;;;;;;4.90;3.10;;;;;;;;;;5099383;28;20178;-80
2021/05/08 02:37:57;;;;;;;3.63;3.33;;;;;;;;;;5080879;28;20249;-80
2021/05/08 02:40:24;;;;;;;3.23;3.03;;;;;;;;;;5081063;28;20250;-80
2021/05/08 02:42:51;;;;;;;3.30;3.00;;;;;;;;;;5081066;28;20202;-81
2021/05/08 02:45:17;;;;;;;3.43;3.23;;;;;;;;;;5080951;28;20205;-81
2021/05/08 02:47:45;;;;;;;3.50;3.20;;;;;;;;;;5077609;28;20226;-81
2021/05/08 02:50:12;;;;;;;3.53;3.30;;;;;;;;;;5079284;28;20210;-81
2021/05/08 02:52:38;;;;;;;3.80;3.50;;;;;;;;;;5077798;28;20197;-81
2021/05/08 02:55:06;;;;;;;3.53;3.20;;;;;;;;;;5079138;28;20210;-81
2021/05/08 02:57:32;;;;;;;3.87;3.50;;;;;;;;;;5078919;28;20272;-80
2021/05/08 02:59:58;;;;;;;3.40;3.20;;;;;;;;;;5079026;28;20175;-81
2021/05/08 03:02:24;;;;;;;3.63;3.43;;;;;;;;;;5077075;28;20206;-80
2021/05/08 03:04:51;;;;;;;3.73;3.47;;;;;;;;;;5075862;28;20205;-80
2021/05/08 03:07:18;;;;;;;3.57;3.27;;;;;;;;;;5074433;28;20195;-81
2021/05/08 03:09:44;;;;;;;3.33;3.03;;;;;;;;;;5074307;28;20195;-81
2021/05/08 03:12:10;;;;;;;3.77;3.47;;;;;;;;;;5075823;28;20189;-81
2021/05/08 03:14:36;;;;;;;3.60;3.40;;;;;;;;;;5073973;28;20248;-80
2021/05/08 03:17:02;;;;;;;3.80;3.60;;;;;;;;;;5075696;28;20230;-81
2021/05/08 03:19:28;;;;;;;3.50;3.30;;;;;;;;;;5073428;28;20202;-81
2021/05/08 03:21:55;;;;;;;3.47;3.17;;;;;;;;;;5075451;28;20242;-81
2021/05/08 03:24:22;;;;;;;3.60;3.40;;;;;;;;;;5075170;28;20214;-81
2021/05/08 03:26:48;;;;;;;3.70;3.47;;;;;;;;;;5073575;28;20218;-80
2021/05/08 03:29:14;;;;;;;3.60;3.40;;;;;;;;;;5073854;28;20248;-80
2021/05/08 03:31:40;;;;;;;3.73;3.43;;;;;;;;;;5073695;28;20209;-81
2021/05/08 03:34:07;;;;;;;3.53;3.33;;;;;;;;;;5073168;28;20207;-81
2021/05/08 03:36:33;;;;;;;4.00;3.70;;;;;;;;;;5073513;28;20203;-80
2021/05/08 03:39:00;;;;;;;4.10;3.80;;;;;;;;;;5073619;28;20226;-81
2021/05/08 03:41:26;;;;;;;4.20;3.70;;;;;;;;;;5075218;28;20229;-81
2021/05/08 03:43:52;;;;;;;4.73;4.20;;;;;;;;;;5073672;28;20199;-81
2021/05/08 03:46:18;;;;;;;4.90;4.50;;;;;;;;;;5072808;28;20772;-84
2021/05/08 03:48:44;;;;;;;4.80;4.40;;;;;;;;;;5076916;28;20190;-83
2021/05/08 03:51:11;;;;;;;5.63;3.93;;;;;;;;;;5077136;28;20182;-84
2021/05/08 03:53:37;;;;;;;4.80;4.30;;;;;;;;;;5076938;28;20201;-83
2021/05/08 03:56:05;;;;;;;5.83;4.60;;;;;;;;;;5076698;28;20212;-83
2021/05/08 03:58:32;;;;;;;4.63;4.33;;;;;;;;;;5094610;28;20260;-85
2021/05/08 04:00:58;;;;;;;5.00;4.60;;;;;;;;;;5077334;28;20280;-86
2021/05/08 04:03:25;;;;;;;5.90;4.37;;;;;;;;;;5095729;28;20183;-83
2021/05/08 04:05:51;;;;;;;6.20;4.80;;;;;;;;;;5076783;28;20235;-83
2021/05/08 04:08:18;;;;;;;4.00;3.70;;;;;;;;;;5094668;28;20674;-83
2021/05/08 04:10:45;;;;;;;3.50;3.27;;;;;;;;;;5094850;28;20920;-85
2021/05/08 04:13:12;;;;;;;4.50;4.13;;;;;;;;;;5076738;28;20197;-84
2021/05/08 04:15:38;;;;;;;3.93;3.67;;;;;;;;;;5094552;28;20201;-84
2021/05/08 04:18:04;;;;;;;5.10;4.20;;;;;;;;;;5074743;28;20314;-84
2021/05/08 04:20:30;;;;;;;4.10;3.90;;;;;;;;;;5075972;28;20209;-84
2021/05/08 04:22:56;;;;;;;4.30;4.00;;;;;;;;;;5076554;28;20209;-84
2021/05/08 04:25:23;;;;;;;4.07;3.77;;;;;;;;;;5076446;28;20198;-84
2021/05/08 04:27:49;;;;;;;4.20;3.80;;;;;;;;;;5076015;28;20217;-83
2021/05/08 04:30:17;;;;;;;3.93;3.63;;;;;;;;;;5076044;28;20202;-84
2021/05/08 04:32:45;;;;;;;4.00;3.70;;;;;;;;;;5076289;28;20244;-84
2021/05/08 04:35:11;;;;;;;3.50;3.30;;;;;;;;;;5094276;28;20230;-84
2021/05/08 04:37:37;;;;;;;4.00;3.80;;;;;;;;;;5094289;28;20256;-83
2021/05/08 04:40:04;;;;;;;4.10;3.70;;;;;;;;;;5076195;28;20291;-84
2021/05/08 04:42:30;;;;;;;4.07;3.77;;;;;;;;;;5094398;28;20658;-84
2021/05/08 04:44:56;;;;;;;3.97;3.67;;;;;;;;;;5076019;28;20981;-83
2021/05/08 04:47:23;;;;;;;4.17;3.87;;;;;;;;;;5072242;28;20230;-84
2021/05/08 04:49:51;;;;;;;5.13;3.60;;;;;;;;;;5072693;28;20207;-84
2021/05/08 04:52:18;;;;;;;3.80;3.50;;;;;;;;;;5072486;28;20206;-84
2021/05/08 04:54:44;;;;;;;3.63;3.43;;;;;;;;;;5072341;28;20211;-84
2021/05/08 04:57:10;;;;;;;3.90;3.57;;;;;;;;;;5072224;28;20253;-84
2021/05/08 04:59:36;;;;;;;3.67;3.47;;;;;;;;;;5071853;28;20626;-83
2021/05/08 05:02:03;;;;;;;3.43;3.23;;;;;;;;;;5072188;28;20534;-84
2021/05/08 05:04:30;;;;;;;3.50;3.30;;;;;;;;;;5072285;28;20210;-84
2021/05/08 05:06:56;;;;;;;5.97;3.40;;;;;;;;;;5073277;28;20249;-84
2021/05/08 05:09:23;;;;;;;3.90;3.60;;;;;;;;;;5072184;28;20206;-85
2021/05/08 05:11:49;;;;;;;3.73;3.53;;;;;;;;;;5072403;28;20292;-85
2021/05/08 05:14:15;;;;;;;3.67;3.43;;;;;;;;;;5072249;28;20577;-85
2021/05/08 05:16:42;;;;;;;3.87;3.50;;;;;;;;;;5072347;28;20247;-84
2021/05/08 05:19:08;;;;;;;3.60;3.40;;;;;;;;;;5072194;28;20215;-85
2021/05/08 05:21:35;;;;;;;5.00;3.30;;;;;;;;;;5072105;28;20211;-85
2021/05/08 05:24:02;;;;;;;4.47;3.37;;;;;;;;;;5072591;28;20202;-85
2021/05/08 05:26:28;;;;;;;4.23;3.40;;;;;;;;;;5073706;28;20698;-86
2021/05/08 05:28:54;;;;;;;4.10;3.70;;;;;;;;;;5072337;28;20654;-86
2021/05/08 05:31:20;;;;;;;4.20;3.33;;;;;;;;;;5072452;28;20209;-86
2021/05/08 05:33:46;;;;;;;3.90;3.60;;;;;;;;;;5073501;28;20233;-84
2021/05/08 05:36:13;;;;;;;4.00;3.70;;;;;;;;;;5071735;28;20205;-84
2021/05/08 05:38:40;;;;;;;4.57;3.80;;;;;;;;;;5072673;28;20245;-88
2021/05/08 05:41:06;;;;;;;3.70;3.40;;;;;;;;;;5073389;28;20210;-86
2021/05/08 05:43:32;;;;;;;3.90;3.50;;;;;;;;;;5072450;28;20214;-87
2021/05/08 05:45:58;;;;;;;4.10;3.60;;;;;;;;;;5073660;28;20214;-85
2021/05/08 05:48:24;;;;;;;3.93;3.60;;;;;;;;;;5090616;28;20245;-85
2021/05/08 05:50:50;;;;;;;3.73;3.47;;;;;;;;;;5075850;28;20198;-86
2021/05/08 05:53:17;;;;;;;4.20;3.80;;;;;;;;;;5075998;28;20556;-86
2021/05/08 05:55:44;;;;;;;4.23;3.57;;;;;;;;;;5075402;28;20665;-85
2021/05/08 05:58:10;;;;;;;3.70;3.40;;;;;;;;;;5075715;28;20283;-85
2021/05/08 06:00:36;;;;;;;3.30;3.10;;;;;;;;;;5075802;28;20188;-85
2021/05/08 06:03:02;;;;;;;3.97;3.57;;;;;;;;;;5075643;28;20209;-86
2021/05/08 06:05:28;;;;;;;3.80;3.57;;;;;;;;;;5075665;28;20201;-86
2021/05/08 06:07:55;;;;;;;3.63;3.27;;;;;;;;;;5093503;28;20237;-86
2021/05/08 06:10:21;;;;;;;3.70;3.40;;;;;;;;;;5076176;28;20587;-86
2021/05/08 06:12:48;;;;;;;3.93;3.60;;;;;;;;;;5075738;28;20573;-90
2021/05/08 06:15:14;;;;;;;3.77;3.57;;;;;;;;;;5075571;28;20201;-87
2021/05/08 06:17:40;;;;;;;8.20;3.60;;;;;;;;;;5094222;28;20257;-89
2021/05/08 06:20:07;;;;;;;4.13;3.77;;;;;;;;;;5093133;28;20244;-87
2021/05/08 06:22:33;;;;;;;3.83;3.53;;;;;;;;;;5075685;28;20670;-86
2021/05/08 06:25:00;;;;;;;3.90;3.70;;;;;;;;;;5093286;28;20221;-86
2021/05/08 06:27:27;;;;;;;4.37;3.77;;;;;;;;;;5075207;28;20210;-86
2021/05/08 06:29:54;;;;;;;4.07;3.67;;;;;;;;;;5093770;28;20212;-86
2021/05/08 06:32:20;;;;;;;3.77;3.47;;;;;;;;;;5075631;28;20190;-85
2021/05/08 06:34:48;;;;;;;3.77;3.47;;;;;;;;;;5075572;28;20666;-87
2021/05/08 06:37:14;;;;;;;4.50;3.90;;;;;;;;;;5075571;28;20205;-86
2021/05/08 06:39:40;;;;;;;3.93;3.63;;;;;;;;;;5075914;28;20241;-84
2021/05/08 06:42:07;;;;;;;4.67;3.30;;;;;;;;;;5079629;28;20202;-85
2021/05/08 06:44:34;;;;;;;5.20;3.50;;;;;;;;;;5079868;28;20202;-87
2021/05/08 06:47:01;;;;;;;4.53;3.80;;;;;;;;;;5076194;28;20233;-87
2021/05/08 06:49:27;;;;;;;3.70;3.43;;;;;;;;;;5076092;28;20191;-86
2021/05/08 06:51:53;;;;;;;3.83;3.53;;;;;;;;;;5077228;28;20229;-85
2021/05/08 06:54:19;;;;;;;3.50;3.30;;;;;;;;;;5075827;28;20198;-87
2021/05/08 06:56:45;;;;;;;5.40;3.20;;;;;;;;;;5076331;28;20194;-87
2021/05/08 06:59:12;;;;;;;5.53;3.60;;;;;;;;;;5076755;28;20568;-84
2021/05/08 07:01:38;;;;;;;4.07;3.67;;;;;;;;;;5077313;28;20881;-89
2021/05/08 07:04:05;;;;;;;4.90;3.73;;;;;;;;;;5076731;28;20212;-84
2021/05/08 07:06:32;;;;;;;3.67;3.33;;;;;;;;;;5076069;28;20252;-87
2021/05/08 07:09:00;;;;;;;4.30;3.47;;;;;;;;;;5077039;28;20214;-88
2021/05/08 07:11:26;;;;;;;3.80;3.50;;;;;;;;;;5076145;28;20203;-86
2021/05/08 07:13:53;;;;;;;3.97;3.57;;;;;;;;;;5076938;28;20206;-87
2021/05/08 07:16:19;;;;;;;4.30;3.40;;;;;;;;;;5076010;28;20210;-88
2021/05/08 07:18:45;;;;;;;3.50;3.30;;;;;;;;;;5077171;28;20199;-87
2021/05/08 07:21:12;;;;;;;3.67;3.33;;;;;;;;;;5075428;28;20206;-88
2021/05/08 07:23:38;;;;;;;3.77;3.40;;;;;;;;;;5076964;28;20221;-87
2021/05/08 07:26:05;;;;;;;3.43;3.23;;;;;;;;;;5075461;28;20268;-88
2021/05/08 07:28:31;;;;;;;3.73;3.03;;;;;;;;;;5076836;28;20731;-87
2021/05/08 07:30:57;;;;;;;4.40;3.70;;;;;;;;;;5075634;28;20210;-89
2021/05/08 07:33:23;;;;;;;6.37;3.33;;;;;;;;;;5075912;28;20195;-88
2021/05/08 07:35:50;;;;;;;3.27;3.07;;;;;;;;;;5075361;28;20205;-87
2021/05/08 07:38:18;;;;;;;3.60;3.30;;;;;;;;;;5075433;28;20662;-87
2021/05/08 07:40:48;;;;;;;3.43;3.13;;;;;;;;;;5075294;28;20190;-87
2021/05/08 07:43:16;;;;;;;3.83;3.50;;;;;;;;;;5075383;28;20260;-86
2021/05/08 07:45:42;;;;;;;4.83;3.27;;;;;;;;;;5075182;28;20206;-87
2021/05/08 07:48:08;;;;;;;3.30;3.10;;;;;;;;;;5074605;28;20231;-90
2021/05/08 07:50:35;;;;;;;3.40;3.20;;;;;;;;;;5075201;28;20666;-87
2021/05/08 07:53:01;;;;;;;3.73;3.43;;;;;;;;;;5074977;28;20195;-89
2021/05/08 07:55:28;;;;;;;3.63;3.33;;;;;;;;;;5075403;28;20662;-88
2021/05/08 07:57:54;;;;;;;3.40;3.10;;;;;;;;;;5075341;28;20760;-88
2021/05/08 08:00:22;;;;;;;3.50;3.20;;;;;;;;;;5076411;28;20209;-87
2021/05/08 08:02:48;;;;;;;7.03;3.40;;;;;;;;;;5075196;28;20195;-87
2021/05/08 08:05:14;;;;;;;3.60;3.30;;;;;;;;;;5074973;28;20191;-89
2021/05/08 08:07:40;;;;;;;4.70;3.60;;;;;;;;;;5075746;28;20213;-87
2021/05/08 08:10:07;;;;;;;3.80;3.50;;;;;;;;;;5075161;28;20198;-87
2021/05/08 08:12:35;;;;;;;3.37;3.17;;;;;;;;;;5074762;28;20198;-87
2021/05/08 08:15:01;;;;;;;3.40;3.20;;;;;;;;;;5075537;28;20187;-88
2021/05/08 08:17:29;;;;;;;3.77;3.40;;;;;;;;;;5075046;28;20233;-88
2021/05/08 08:19:55;;;;;;;4.27;3.40;;;;;;;;;;5074939;28;20674;-87
2021/05/08 08:22:21;;;;;;;3.67;3.37;;;;;;;;;;5074534;28;20191;-87
2021/05/08 08:24:48;;;;;;;4.23;3.60;;;;;;;;;;5075185;28;20215;-86
2021/05/08 08:27:14;;;;;;;3.50;3.20;;;;;;;;;;5074349;28;20245;-86
2021/05/08 08:29:41;;;;;;;3.20;2.90;;;;;;;;;;5074228;28;20536;-85
2021/05/08 08:32:07;;;;;;;3.40;3.20;;;;;;;;;;5075427;28;20174;-86
2021/05/08 08:34:33;;;;;;;3.23;2.83;;;;;;;;;;5074106;28;20268;-86
2021/05/08 08:37:01;;;;;;;4.00;3.20;;;;;;;;;;5073956;28;20190;-86
2021/05/08 08:39:28;;;;;;;3.70;3.40;;;;;;;;;;5073974;28;20214;-85
2021/05/08 08:41:55;;;;;;;3.65;3.45;;;;;;;;;;5072727;28;20741;-86
2021/05/08 08:44:21;;;;;;;4.03;3.70;;;;;;;;;;5073828;28;20187;-86
2021/05/08 08:46:48;;;;;;;3.30;3.00;;;;;;;;;;5073506;28;20249;-85
2021/05/08 08:49:15;;;;;;;3.93;3.07;;;;;;;;;;5073501;28;20202;-86
2021/05/08 08:51:41;;;;;;;3.67;3.37;;;;;;;;;;5074592;28;20217;-86
2021/05/08 08:54:08;;;;;;;3.50;3.23;;;;;;;;;;5073427;28;20255;-89
2021/05/08 08:56:38;;;;;;;3.73;3.40;;;;;;;;;;5073384;28;20235;-85
2021/05/08 08:59:12;;;;;;;3.20;2.90;;;;;;;;;;5073281;28;20207;-90
2021/05/08 09:01:38;;;;;;;3.33;3.03;;;;;;;;;;5074475;28;20202;-83
2021/05/08 09:04:05;;;;;;;5.10;3.47;;;;;;;;;;5072890;28;20237;-85
2021/05/08 09:06:31;;;;;;;3.60;3.30;;;;;;;;;;5074974;28;20179;-84
2021/05/08 09:08:58;;;;;;;3.40;3.10;;;;;;;;;;5073391;28;20811;-87
2021/05/08 09:11:25;;;;;;;8.60;2.80;;;;;;;;;;5074296;28;20210;-85
2021/05/08 09:14:11;;;;;;;3.23;2.80;;;;;;;;;;5073171;28;20583;-84
2021/05/08 09:16:37;;;;;;;3.30;3.00;;;;;;;;;;5074075;28;20218;-81
2021/05/08 09:19:18;;;;;;;2.80;2.57;;;;;;;;;;5072423;28;20293;-83
2021/05/08 09:21:45;;;;;;;3.00;2.63;;;;;;;;;;5073862;28;20186;-81
2021/05/08 09:24:11;;;;;;;3.40;3.10;;;;;;;;;;5074328;28;20247;-87
2021/05/08 09:26:38;;;;;;;3.07;2.83;;;;;;;;;;5072972;28;20226;-88
2021/05/08 09:29:15;;;;;;;3.40;3.10;;;;;;;;;;5072998;28;20753;-84
2021/05/08 09:31:50;;;;;;;3.00;2.80;;;;;;;;;;5075341;28;20561;-87
2021/05/08 09:34:17;;;;;;;3.27;2.97;;;;;;;;;;5074406;28;20205;-87
2021/05/08 09:36:51;;;;;;;4.93;2.40;;;;;;;;;;5073065;28;20221;-87
2021/05/08 09:39:27;;;;;;;4.70;3.00;;;;;;;;;;5072735;28;20260;-89
2021/05/08 09:41:53;;;;;;;2.57;2.40;;;;;;;;;;5074641;28;20595;-92
2021/05/08 09:44:19;;;;;;;3.43;2.80;;;;;;;;;;5074396;28;20601;-93
2021/05/08 09:46:45;;;;;;;4.53;2.77;;;;;;;;;;5073469;28;20300;-92
2021/05/08 09:49:12;;;;;;;4.10;2.70;;;;;;;;;;5074357;28;20187;-91
2021/05/08 09:51:39;;;;;;;2.97;2.50;;;;;;;;;;5074910;28;20191;-95
2021/05/08 09:54:13;;;;;;;7.87;2.70;;;;;;;;;;5073843;28;20190;-88
2021/05/08 09:56:39;;;;;;;5.40;2.63;;;;;;;;;;5073006;28;20198;-88
2021/05/08 09:59:23;;;;;;;2.80;2.60;;;;;;;;;;5074161;28;20230;-86
2021/05/08 10:01:50;;;;;;;2.50;2.30;;;;;;;;;;5074969;28;20183;-89
2021/05/08 10:04:26;;;;;;;3.00;2.80;;;;;;;;;;5074039;28;20199;-92
2021/05/08 10:07:04;;;;;;;3.70;2.50;;;;;;;;;;5075412;28;20193;-91
2021/05/08 10:09:31;;;;;;;2.77;2.57;;;;;;;;;;5077004;28;20186;-92
2021/05/08 10:11:58;;;;;;;2.90;2.57;;;;;;;;;;5078517;28;20662;-94
2021/05/08 10:14:24;;;;;;;2.70;2.50;;;;;;;;;;5077119;28;20658;-90
2021/05/08 10:16:50;;;;;;;2.77;2.57;;;;;;;;;;5081481;28;20175;-92
2021/05/08 10:19:17;;;;;;;3.37;2.80;;;;;;;;;;5080998;28;20215;-92
2021/05/08 10:21:44;;;;;;;6.63;3.00;;;;;;;;;;5077768;28;20206;-90
2021/05/08 10:24:11;;;;;;;2.47;2.30;;;;;;;;;;5078154;28;20217;-88
2021/05/08 10:26:38;;;;;;;2.37;2.20;;;;;;;;;;5078027;28;20235;-89
2021/05/08 10:29:04;;;;;;;2.50;2.30;;;;;;;;;;5078443;28;20171;-88
2021/05/08 10:31:31;;;;;;;2.43;2.23;;;;;;;;;;5077989;28;20206;-86
2021/05/08 10:33:57;;;;;;;4.47;2.40;;;;;;;;;;5076609;28;20264;-87
2021/05/08 10:36:38;;;;;;;3.50;2.47;;;;;;;;;;5076278;28;20260;-89
2021/05/08 10:39:05;;;;;;;4.23;2.30;;;;;;;;;;5076126;28;20214;-89
2021/05/08 10:41:46;;;;;;;2.60;2.30;;;;;;;;;;5076757;28;20889;-86
2021/05/08 10:44:33;;;;;;;2.30;2.00;;;;;;;;;;5077230;28;20202;-86
2021/05/08 10:46:59;;;;;;;3.50;1.60;;;;;;;;;;5083957;28;20221;-86
2021/05/08 10:49:25;;;;;;;3.17;2.20;;;;;;;;;;5078668;28;20643;-81
2021/05/08 10:51:55;;;;;;;3.03;2.20;;;;;;;;;;5078058;28;20733;-79
2021/05/08 10:54:49;;;;;;;5.40;1.50;;;;;;;;;;5078236;28;20193;-80
2021/05/08 10:57:15;;;;;;;2.47;1.50;;;;;;;;;;5078309;28;20255;-81
2021/05/08 11:00:00;;;;;;;1.67;1.57;;;;;;;;;;5077834;28;20766;-80
2021/05/08 11:02:41;;;;;;;1.37;1.27;;;;;;;;;;5078338;28;20197;-79
2021/05/08 11:05:21;;;;;;;3.30;1.60;;;;;;;;;;5065894;28;20206;-81
2021/05/08 11:07:47;;;;;;;2.17;1.50;;;;;;;;;;5078174;28;20254;-81
2021/05/08 11:10:34;;;;;;;1.40;1.30;;;;;;;;;;5095851;28;20674;-80
2021/05/08 11:13:07;;;;;;;1.97;1.60;;;;;;;;;;5077692;28;20202;-79
2021/05/08 11:16:03;;;;;;;4.50;1.30;;;;;;;;;;5077730;28;20251;-82
2021/05/08 11:18:37;;;;;;;3.63;1.40;;;;;;;;;;5061085;28;20257;-79
2021/05/08 11:21:27;;;;;;;2.40;1.40;;;;;;;;;;5077864;28;20189;-77
2021/05/08 11:23:55;;;;;;;1.43;1.33;;;;;;;;;;5077246;28;20206;-80
2021/05/08 11:26:37;;;;;;;1.40;1.30;;;;;;;;;;5094323;28;21273;-79
2021/05/08 11:29:04;;;;;;;1.57;1.30;;;;;;;;;;5077482;28;20186;-79
2021/05/08 11:31:31;;;;;;;1.83;1.73;;;;;;;;;;5077731;28;20239;-78
2021/05/08 11:34:04;;;;;;;1.43;1.20;;;;;;;;;;5076673;28;21008;-79
2021/05/08 11:36:31;;;;;;;1.33;1.33;;;;;;;;;;5095502;28;20201;-78
2021/05/08 11:39:07;;;;;;;1.27;1.20;;;;;;;;;;5077409;28;20282;-79
2021/05/08 11:41:33;;;;;;;3.43;1.30;;;;;;;;;;5095524;28;20251;-78
2021/05/08 11:43:59;;;;;;;1.30;1.20;;;;;;;;;;5077229;28;20223;-78
2021/05/08 11:46:27;;;;;;;1.23;1.13;;;;;;;;;;5077165;28;20190;-80
2021/05/08 11:48:54;;;;;;;1.27;1.17;;;;;;;;;;5076733;28;20194;-78
2021/05/08 11:51:20;;;;;;;1.07;1.07;;;;;;;;;;5095322;28;20202;-78
2021/05/08 11:54:01;;;;;;;2.23;1.10;;;;;;;;;;5077291;28;20194;-78
2021/05/08 11:56:30;;;;;;;2.27;1.20;;;;;;;;;;5076778;28;20262;-78
2021/05/08 11:58:56;;;;;;;1.43;1.33;;;;;;;;;;5077062;28;20245;-78
2021/05/08 12:01:22;;;;;;;1.73;1.13;;;;;;;;;;5094932;28;20205;-78
2021/05/08 12:03:53;;;;;;;1.40;1.30;;;;;;;;;;5077223;28;20190;-78
2021/05/08 12:06:19;;;;;;;1.20;1.20;;;;;;;;;;5076917;28;20726;-79
2021/05/08 12:08:45;;;;;;;1.63;1.53;;;;;;;;;;5076583;28;20197;-78
2021/05/08 12:11:15;;;;;;;1.53;1.20;;;;;;;;;;5076595;28;20610;-78
2021/05/08 12:13:42;;;;;;;1.63;1.47;;;;;;;;;;5076571;28;20197;-78
2021/05/08 12:16:08;;;;;;;2.67;1.43;;;;;;;;;;5094855;28;20626;-78
2021/05/08 12:18:34;;;;;;;1.20;1.10;;;;;;;;;;5076751;28;20688;-77
2021/05/08 12:21:02;;;;;;;1.10;1.07;;;;;;;;;;5094633;28;20899;-78
2021/05/08 12:23:28;;;;;;;1.37;1.30;;;;;;;;;;5076894;28;20197;-78
2021/05/08 12:26:08;;;;;;;1.30;1.20;;;;;;;;;;5076262;28;20631;-78
2021/05/08 12:28:35;;;;;;;2.00;1.50;;;;;;;;;;5076235;28;20201;-78
2021/05/08 12:31:16;;;;;;;1.70;1.47;;;;;;;;;;5076386;28;20549;-80
2021/05/08 12:33:43;;;;;;;1.17;1.10;;;;;;;;;;5076385;28;20209;-81
2021/05/08 12:36:12;;;;;;;1.43;1.33;;;;;;;;;;5075788;28;20242;-81
2021/05/08 12:38:39;;;;;;;2.03;1.30;;;;;;;;;;5075159;28;20302;-81
2021/05/08 12:41:20;;;;;;;1.87;1.40;;;;;;;;;;5075899;28;20726;-81
2021/05/08 12:43:48;;;;;;;1.13;1.13;;;;;;;;;;5076251;28;20797;-81
2021/05/08 12:46:14;;;;;;;1.27;1.17;;;;;;;;;;5094090;28;20209;-81
2021/05/08 12:48:43;;;;;;;2.00;1.30;;;;;;;;;;5072684;28;20284;-81
2021/05/08 12:51:25;;;;;;;1.43;1.33;;;;;;;;;;5073964;28;20202;-81
2021/05/08 12:54:06;;;;;;;2.10;1.73;;;;;;;;;;5072723;28;20194;-81
2021/05/08 12:56:32;;;;;;;2.07;1.37;;;;;;;;;;5071766;28;20198;-80
2021/05/08 12:58:58;;;;;;;1.60;1.50;;;;;;;;;;5072446;28;20246;-80
2021/05/08 13:01:25;;;;;;;1.10;1.00;;;;;;;;;;5072516;28;20227;-82
2021/05/08 13:03:52;;;;;;;1.40;1.30;;;;;;;;;;5073113;28;20749;-82
2021/05/08 13:06:21;;;;;;;1.30;1.20;;;;;;;;;;5072515;28;20210;-82
2021/05/08 13:08:48;;;;;;;1.13;1.13;;;;;;;;;;5072521;28;20701;-82
2021/05/08 13:11:29;;;;;;;1.47;1.30;;;;;;;;;;5072277;28;20182;-82
2021/05/08 13:14:10;;;;;;;2.40;1.40;;;;;;;;;;5072308;28;20236;-82
2021/05/08 13:16:36;;;;;;;2.50;1.40;;;;;;;;;;5073370;28;20232;-82
2021/05/08 13:19:03;;;;;;;2.13;1.30;;;;;;;;;;5072042;28;20221;-82
2021/05/08 13:21:29;;;;;;;1.40;1.30;;;;;;;;;;5071583;28;20202;-83
2021/05/08 13:23:55;;;;;;;1.67;1.47;;;;;;;;;;5072293;28;20225;-85
2021/05/08 13:26:22;;;;;;;16.13;2.07;;;;;;;;;;5072300;28;20226;-81
2021/05/08 13:28:48;;;;;;;1.47;1.27;;;;;;;;;;5072584;28;20957;-83
2021/05/08 13:31:14;;;;;;;1.23;1.13;;;;;;;;;;5072430;28;20202;-82
2021/05/08 13:33:40;;;;;;;1.50;1.40;;;;;;;;;;5071542;28;20203;-83
2021/05/08 13:36:08;;;;;;;1.30;1.20;;;;;;;;;;5072310;28;20190;-83
2021/05/08 13:38:34;;;;;;;1.80;1.30;;;;;;;;;;5073932;28;20210;-84
2021/05/08 13:41:00;;;;;;;1.83;1.10;;;;;;;;;;5071964;28;20215;-82
2021/05/08 13:43:26;;;;;;;1.80;1.10;;;;;;;;;;5072079;28;20191;-82
2021/05/08 13:45:52;;;;;;;3.10;1.20;;;;;;;;;;5073382;28;20174;-83
2021/05/08 13:48:18;;;;;;;1.10;1.10;;;;;;;;;;5089814;28;20234;-84
2021/05/08 13:50:45;;;;;;;1.10;1.10;;;;;;;;;;5075445;28;20211;-83
2021/05/08 13:53:12;;;;;;;1.13;1.00;;;;;;;;;;5076046;28;20197;-84
2021/05/08 13:55:38;;;;;;;1.10;1.10;;;;;;;;;;5076103;28;20186;-86
2021/05/08 13:58:04;;;;;;;1.40;1.30;;;;;;;;;;5092791;28;21226;-81
2021/05/08 14:00:31;;;;;;;3.40;1.77;;;;;;;;;;5075912;28;20247;-84
2021/05/08 14:02:59;;;;;;;1.17;1.17;;;;;;;;;;5093613;28;20245;-86
2021/05/08 14:05:26;;;;;;;1.03;1.03;;;;;;;;;;5080491;28;20239;-90
2021/05/08 14:07:53;;;;;;;2.17;1.30;;;;;;;;;;5078928;28;20197;-87
2021/05/08 14:10:20;;;;;;;2.20;1.20;;;;;;;;;;5075916;28;20216;-85
2021/05/08 14:12:46;;;;;;;1.80;1.20;;;;;;;;;;5075861;28;20217;-85
2021/05/08 14:15:12;;;;;;;1.20;1.20;;;;;;;;;;5075540;28;20666;-85
2021/05/08 14:17:39;;;;;;;1.23;1.00;;;;;;;;;;5075227;28;20227;-84
2021/05/08 14:20:06;;;;;;;1.60;1.30;;;;;;;;;;5075347;28;20294;-86
2021/05/08 14:22:34;;;;;;;1.20;1.20;;;;;;;;;;5074964;28;20202;-85
2021/05/08 14:25:00;;;;;;;1.40;1.30;;;;;;;;;;5093366;28;20210;-85
2021/05/08 14:27:27;;;;;;;2.57;1.73;;;;;;;;;;5074635;28;20221;-83
2021/05/08 14:29:54;;;;;;;2.20;1.10;;;;;;;;;;5093251;28;20230;-86
2021/05/08 14:32:20;;;;;;;3.37;1.43;;;;;;;;;;5075803;28;20199;-86
2021/05/08 14:34:46;;;;;;;1.13;1.13;;;;;;;;;;5075402;28;20198;-85
2021/05/08 14:37:14;;;;;;;1.20;1.10;;;;;;;;;;5093652;28;20189;-85
2021/05/08 14:39:41;;;;;;;2.57;1.30;;;;;;;;;;5075408;28;20901;-86
2021/05/08 14:42:07;;;;;;;1.37;1.23;;;;;;;;;;5093782;28;20190;-84
2021/05/08 14:44:34;;;;;;;3.07;1.30;;;;;;;;;;5075207;28;20255;-84
2021/05/08 14:47:00;;;;;;;1.90;1.33;;;;;;;;;;5071486;28;20292;-86